createdAt,value
2023-04-11T11:28:19.252Z,16.00
2023-04-11T11:29:19.201Z,16.41
2023-04-11T11:35:03.395Z,15.25
2023-04-11T11:43:52.381Z,14.37
2023-04-11T11:44:52.405Z,15.31
2023-04-11T11:45:52.371Z,16.23
2023-04-11T11:46:52.332Z,16.98
2023-04-11T11:47:52.342Z,17.43
2023-04-11T11:48:52.312Z,17.63
2023-04-11T11:49:52.314Z,17.16
2023-04-11T11:50:52.274Z,16.93
2023-04-11T11:51:52.271Z,16.52
2023-04-11T11:52:52.223Z,17.08
2023-04-11T11:53:52.202Z,16.15
2023-04-11T11:54:52.216Z,16.67
2023-04-11T11:55:52.195Z,16.91
2023-04-11T11:56:52.183Z,16.98
2023-04-11T11:57:52.152Z,17.12
2023-04-11T11:58:52.136Z,17.21
2023-04-11T11:59:52.167Z,17.15
2023-04-11T12:01:10.699Z,16.63
2023-04-11T12:02:12.771Z,16.41
2023-04-11T12:08:15.758Z,15.59
2023-04-11T12:09:15.713Z,16.05
2023-04-11T12:10:15.754Z,16.46
2023-04-11T12:12:08.150Z,16.08
2023-04-11T12:13:08.115Z,17.07
2023-04-11T12:14:08.112Z,17.31
2023-04-11T12:15:08.093Z,17.33
2023-04-11T12:16:08.125Z,17.40
2023-04-11T12:17:08.093Z,17.37
2023-04-11T12:19:11.397Z,16.91
2023-04-11T12:20:11.385Z,17.22
2023-04-11T12:21:11.365Z,17.46
2023-04-11T12:23:44.262Z,16.00
2023-04-11T12:24:44.228Z,16.21
2023-04-11T12:25:54.583Z,16.01
2023-04-11T12:27:06.427Z,16.45
2023-04-11T12:27:54.534Z,16.12
2023-04-11T12:28:54.780Z,16.53
2023-04-11T12:29:54.503Z,17.04
2023-04-11T12:30:54.519Z,17.43
2023-04-11T12:31:54.540Z,17.62
2023-04-11T12:32:54.518Z,17.12
2023-04-11T12:34:42.331Z,16.24
2023-04-11T12:35:42.338Z,16.53
2023-04-11T12:36:42.335Z,16.93
2023-04-11T12:37:42.297Z,17.21
2023-04-11T12:38:42.294Z,17.71
2023-04-11T12:39:42.275Z,18.11
2023-04-11T12:40:42.258Z,17.66
2023-04-11T12:41:42.296Z,17.22
2023-04-11T12:42:53.477Z,17.34
2023-04-11T12:43:42.248Z,17.90
2023-04-11T12:44:42.207Z,17.95
2023-04-11T12:45:42.234Z,17.95
2023-04-11T12:46:42.225Z,17.95
2023-04-11T12:47:42.247Z,17.92
2023-04-11T12:48:42.186Z,18.02
2023-04-11T12:49:42.152Z,17.66
2023-04-11T12:50:42.155Z,17.48
2023-04-11T12:51:42.153Z,17.46
2023-04-11T12:53:11.499Z,16.60
2023-04-11T12:54:11.473Z,17.01
2023-04-11T12:55:11.472Z,17.23
2023-04-11T12:56:11.449Z,17.36
2023-04-11T12:57:11.459Z,17.79
2023-04-11T12:58:11.472Z,17.93
2023-04-11T13:01:55.617Z,15.62
2023-04-11T13:07:28.707Z,15.41
2023-04-11T13:08:28.688Z,15.54
2023-04-11T13:09:28.650Z,15.71
2023-04-11T13:10:28.642Z,15.69
2023-04-11T13:12:24.284Z,15.14
2023-04-11T13:13:24.235Z,15.23
2023-04-11T13:14:24.231Z,16.23
2023-04-11T13:15:24.227Z,16.42
2023-04-11T13:16:24.258Z,16.83
2023-04-11T13:17:24.243Z,17.23
2023-04-11T13:18:24.188Z,17.49
2023-04-11T13:19:24.216Z,17.84
2023-04-11T13:20:24.161Z,18.29
2023-04-11T13:21:24.143Z,17.99
2023-04-11T13:22:57.076Z,17.08
2023-04-11T13:26:59.809Z,15.56
2023-04-11T13:27:59.789Z,16.52
2023-04-11T13:28:59.782Z,17.06
2023-04-11T13:29:59.756Z,17.64
2023-04-11T13:30:59.759Z,17.81
2023-04-11T13:31:59.761Z,18.17
2023-04-11T13:32:59.771Z,18.52
2023-04-11T13:33:59.698Z,18.27
2023-04-11T13:34:59.680Z,18.05
2023-04-11T13:35:59.694Z,17.70
2023-04-11T13:40:11.870Z,16.04
2023-04-11T13:41:13.238Z,17.12
2023-04-11T13:42:11.790Z,17.71
2023-04-11T13:43:11.814Z,17.97
2023-04-11T13:44:11.769Z,17.96
2023-04-11T13:45:11.751Z,17.89
2023-04-11T13:46:11.773Z,18.07
2023-04-11T13:47:11.758Z,18.44
2023-04-11T13:48:11.797Z,17.97
2023-04-11T13:49:11.705Z,18.39
2023-04-11T13:50:11.740Z,18.62
2023-04-11T13:51:11.678Z,18.45
2023-04-11T13:52:11.688Z,19.11
2023-04-11T13:53:11.688Z,18.73
2023-04-11T13:54:11.644Z,18.81
2023-04-11T13:55:11.663Z,17.99
2023-04-11T13:56:11.655Z,17.30
2023-04-11T13:57:11.633Z,16.98
2023-04-11T14:08:19.238Z,15.57
2023-04-11T14:09:19.216Z,15.80
2023-04-11T14:10:19.191Z,15.69
2023-04-11T14:11:19.184Z,15.56
2023-04-11T14:12:19.171Z,15.69
2023-04-11T14:17:51.355Z,15.17
2023-04-11T14:18:51.316Z,15.20
2023-04-11T14:23:57.191Z,15.25
2023-04-11T14:30:43.057Z,15.36
2023-04-11T14:31:43.050Z,15.43
2023-04-11T14:32:43.024Z,15.64
2023-04-11T14:33:42.905Z,15.60
2023-04-11T14:34:42.878Z,16.45
2023-04-11T14:35:42.858Z,16.79
2023-04-11T14:36:42.894Z,17.14
2023-04-11T14:37:42.831Z,16.58
2023-04-11T14:38:42.840Z,16.93
2023-04-11T14:39:42.798Z,17.28
2023-04-11T14:40:42.824Z,16.88
2023-04-11T14:41:42.802Z,16.97
2023-04-11T14:42:42.783Z,17.51
2023-04-11T14:43:42.767Z,17.46
2023-04-11T14:44:42.757Z,17.41
2023-04-11T14:45:42.738Z,17.82
2023-04-11T14:46:42.861Z,17.40
2023-04-11T14:47:42.703Z,17.07
2023-04-11T14:48:42.689Z,16.53
2023-04-11T14:49:42.669Z,16.56
2023-04-11T14:50:42.670Z,16.56
2023-04-11T14:51:42.659Z,17.08
2023-04-11T14:52:42.673Z,17.44
2023-04-11T15:00:06.593Z,14.92
2023-04-11T15:12:26.560Z,15.01
2023-04-11T15:13:26.544Z,15.31
2023-04-11T15:14:26.527Z,15.32
2023-04-11T15:15:26.508Z,15.47
2023-04-11T15:22:40.154Z,14.88
2023-04-11T15:23:39.300Z,15.06
2023-04-11T15:24:39.286Z,15.49
2023-04-11T15:25:39.246Z,15.71
2023-04-11T15:26:39.274Z,15.60
2023-04-11T15:27:39.219Z,15.89
2023-04-11T15:28:39.226Z,16.20
2023-04-11T15:29:39.198Z,15.96
2023-04-11T15:30:39.178Z,16.05
2023-04-11T15:31:39.198Z,16.08
2023-04-11T15:32:47.378Z,16.07
2023-04-11T15:33:47.345Z,16.35
2023-04-11T15:40:37.668Z,15.32
2023-04-11T15:41:37.634Z,15.69
2023-04-11T15:42:37.626Z,15.82
2023-04-11T15:43:52.807Z,15.80
2023-04-11T15:44:52.790Z,16.07
2023-04-11T15:45:52.766Z,16.48
2023-04-11T15:46:52.823Z,16.93
2023-04-11T15:47:52.817Z,16.89
2023-04-11T15:48:52.715Z,16.73
2023-04-11T15:49:52.725Z,16.94
2023-04-11T16:01:12.700Z,15.71
2023-04-11T16:02:12.770Z,15.75
2023-04-11T16:03:12.906Z,15.92
2023-04-11T16:04:12.682Z,16.46
2023-04-11T16:05:12.699Z,16.14
2023-04-11T16:06:12.777Z,16.25
2023-04-11T16:08:48.559Z,15.97
2023-04-11T16:09:48.542Z,16.45
2023-04-11T16:10:48.511Z,17.07
2023-04-11T16:11:48.533Z,17.96
2023-04-11T16:12:48.478Z,17.62
2023-04-11T16:13:48.490Z,18.37
2023-04-11T16:14:48.453Z,18.42
2023-04-11T16:15:48.458Z,17.63
2023-04-11T16:16:48.562Z,17.40
2023-04-11T16:17:48.430Z,16.97
2023-04-11T16:18:48.430Z,16.68
2023-04-11T16:19:48.421Z,16.49
2023-04-11T16:20:48.412Z,16.25
2023-04-11T16:21:48.394Z,16.17
2023-04-11T16:22:48.366Z,15.75
2023-04-11T16:23:48.379Z,15.72
2023-04-11T16:24:48.356Z,15.53
2023-04-11T16:25:57.940Z,15.43
